createdAt,value
2024-04-21T00:01:27.822Z,8.70
2024-04-21T00:04:00.379Z,8.90
2024-04-21T00:06:32.628Z,8.90
2024-04-21T00:09:04.814Z,8.90
2024-04-21T00:11:36.935Z,8.90
2024-04-21T00:14:10.015Z,8.90
2024-04-21T00:16:42.138Z,8.80
2024-04-21T00:19:14.722Z,8.70
2024-04-21T00:21:46.957Z,8.60
2024-04-21T00:24:19.163Z,8.60
2024-04-21T00:26:51.263Z,8.60
2024-04-21T00:29:23.817Z,8.60
2024-04-21T00:31:56.014Z,8.70
2024-04-21T00:34:28.080Z,8.80
2024-04-21T00:37:00.332Z,8.80
2024-04-21T00:39:32.473Z,8.90
2024-04-21T00:42:04.659Z,8.90
2024-04-21T00:44:37.924Z,8.90
2024-04-21T00:47:10.189Z,9.00
2024-04-21T00:49:43.496Z,9.10
2024-04-21T00:52:16.178Z,9.20
2024-04-21T00:54:48.447Z,9.30
2024-04-21T00:57:21.155Z,9.30
2024-04-21T00:59:53.380Z,9.30
2024-04-21T01:02:25.525Z,9.20
2024-04-21T01:05:00.384Z,9.20
2024-04-21T01:07:32.540Z,9.20
2024-04-21T01:10:05.624Z,9.20
2024-04-21T01:12:41.654Z,9.10
2024-04-21T01:15:13.915Z,9.10
2024-04-21T01:17:46.188Z,9.20
2024-04-21T01:20:18.621Z,9.50
2024-04-21T01:22:50.959Z,9.60
2024-04-21T01:25:23.131Z,9.60
2024-04-21T01:27:56.655Z,9.60
2024-04-21T01:30:29.095Z,9.70
2024-04-21T01:33:01.359Z,9.60
2024-04-21T01:35:33.730Z,9.60
2024-04-21T01:38:05.872Z,9.40
2024-04-21T01:40:38.018Z,9.30
2024-04-21T01:43:10.139Z,9.40
2024-04-21T01:45:42.645Z,9.40
2024-04-21T01:48:14.724Z,9.40
2024-04-21T01:50:49.959Z,9.40
2024-04-21T01:53:22.080Z,9.40
2024-04-21T01:55:54.278Z,9.30
2024-04-21T01:58:26.414Z,9.30
2024-04-21T02:00:58.612Z,9.20
2024-04-21T02:03:30.803Z,9.20
2024-04-21T02:06:03.005Z,9.30
2024-04-21T02:08:35.056Z,9.30
2024-04-21T02:11:07.094Z,9.30
2024-04-21T02:13:39.382Z,9.40
2024-04-21T02:16:11.505Z,9.30
2024-04-21T02:18:43.681Z,9.20
2024-04-21T02:21:15.763Z,9.20
2024-04-21T02:23:50.993Z,9.30
2024-04-21T02:26:23.084Z,9.30
2024-04-21T02:28:55.184Z,9.30
2024-04-21T02:31:27.363Z,9.20
2024-04-21T02:33:59.760Z,9.30
2024-04-21T02:36:31.910Z,9.30
2024-04-21T02:39:22.761Z,9.20
2024-04-21T02:41:54.802Z,9.20
2024-04-21T02:44:26.984Z,9.20
2024-04-21T02:46:59.176Z,9.10
2024-04-21T02:49:31.535Z,9.10
2024-04-21T02:52:04.494Z,9.10
2024-04-21T02:54:37.255Z,9.20
2024-04-21T02:57:09.288Z,9.30
2024-04-21T02:59:41.799Z,9.40
2024-04-21T03:02:14.032Z,9.50
2024-04-21T03:04:46.203Z,9.50
2024-04-21T03:07:18.985Z,9.40
2024-04-21T03:09:51.208Z,9.40
2024-04-21T03:12:23.373Z,9.40
2024-04-21T03:14:55.482Z,9.40
2024-04-21T03:17:27.628Z,9.40
2024-04-21T03:19:59.720Z,9.40
2024-04-21T03:22:31.796Z,9.40
2024-04-21T03:25:04.277Z,9.50
2024-04-21T03:27:36.403Z,9.50
2024-04-21T03:30:08.825Z,9.60
2024-04-21T03:32:41.051Z,9.50
2024-04-21T03:35:16.428Z,9.50
2024-04-21T03:37:48.651Z,9.50
2024-04-21T03:40:21.609Z,9.30
2024-04-21T03:42:53.780Z,9.20
2024-04-21T03:45:25.855Z,9.20
2024-04-21T03:47:58.087Z,9.30
2024-04-21T03:50:30.151Z,9.20
2024-04-21T03:53:02.281Z,9.20
2024-04-21T03:55:34.472Z,9.20
2024-04-21T03:58:06.584Z,9.30
2024-04-21T04:00:39.011Z,9.20
2024-04-21T04:03:11.071Z,9.10
2024-04-21T04:05:45.348Z,8.90
2024-04-21T04:08:17.490Z,8.80
2024-04-21T04:10:49.774Z,8.70
2024-04-21T04:13:21.996Z,8.50
2024-04-21T04:15:54.187Z,8.30
2024-04-21T04:18:26.481Z,8.20
2024-04-21T04:20:58.543Z,8.20
2024-04-21T04:23:30.734Z,8.10
2024-04-21T04:26:02.848Z,8.10
2024-04-21T04:28:35.035Z,7.80
2024-04-21T04:31:07.277Z,7.80
2024-04-21T04:33:39.486Z,7.70
2024-04-21T04:36:11.734Z,7.80
2024-04-21T04:38:43.798Z,7.70
2024-04-21T04:41:15.934Z,7.80
2024-04-21T04:43:48.044Z,7.90
2024-04-21T04:46:20.212Z,7.90
2024-04-21T04:48:53.063Z,8.00
2024-04-21T04:51:25.229Z,8.10
2024-04-21T04:53:57.338Z,8.30
2024-04-21T04:56:29.448Z,8.90
2024-04-21T04:59:03.986Z,9.90
2024-04-21T05:01:37.448Z,10.70
2024-04-21T05:04:09.679Z,11.00
2024-04-21T05:06:41.924Z,11.00
2024-04-21T05:09:13.921Z,11.00
2024-04-21T05:11:46.114Z,10.90
2024-04-21T05:14:18.254Z,10.90
2024-04-21T05:16:50.358Z,11.00
2024-04-21T05:19:22.426Z,11.20
2024-04-21T05:21:54.508Z,11.30
2024-04-21T05:24:26.644Z,11.40
2024-04-21T05:26:58.777Z,11.60
2024-04-21T05:29:31.011Z,12.00
2024-04-21T05:32:03.176Z,12.20
2024-04-21T05:34:35.475Z,12.40
2024-04-21T05:37:07.525Z,12.30
2024-04-21T05:39:39.664Z,12.50
2024-04-21T05:42:11.751Z,12.70
2024-04-21T05:44:43.777Z,12.90
2024-04-21T05:47:17.605Z,13.10
2024-04-21T05:49:49.670Z,13.30
2024-04-21T05:52:21.894Z,13.40
2024-04-21T05:54:54.033Z,13.60
2024-04-21T05:57:26.232Z,13.50
2024-04-21T05:59:58.255Z,13.50
2024-04-21T06:02:30.455Z,13.70
2024-04-21T06:05:04.306Z,13.70
2024-04-21T06:07:36.461Z,13.50
2024-04-21T06:10:08.783Z,13.20
2024-04-21T06:12:40.825Z,13.20
2024-04-21T06:15:12.880Z,13.30
2024-04-21T06:17:45.009Z,13.50
2024-04-21T06:20:17.295Z,13.80
2024-04-21T06:22:49.330Z,14.10
2024-04-21T06:25:21.433Z,14.20
2024-04-21T06:27:53.620Z,14.40
2024-04-21T06:30:25.665Z,15.00
2024-04-21T06:32:57.801Z,15.50
2024-04-21T06:35:29.840Z,15.90
2024-04-21T06:38:02.012Z,16.40
2024-04-21T06:40:34.086Z,16.60
2024-04-21T06:43:06.331Z,16.40
2024-04-21T06:45:41.766Z,16.70
2024-04-21T06:48:14.310Z,17.20
2024-04-21T06:50:46.453Z,17.50
2024-04-21T06:53:19.248Z,17.90
2024-04-21T06:55:51.674Z,18.30
2024-04-21T06:58:23.891Z,18.40
2024-04-21T07:00:56.642Z,18.30
2024-04-21T07:03:28.751Z,18.40
2024-04-21T07:06:00.830Z,18.40
2024-04-21T07:08:32.931Z,18.30
2024-04-21T07:11:06.806Z,18.40
2024-04-21T07:13:39.075Z,18.40
2024-04-21T07:16:11.217Z,18.00
2024-04-21T07:18:43.531Z,18.40
2024-04-21T07:21:15.759Z,18.80
2024-04-21T07:23:47.856Z,19.10
2024-04-21T07:26:19.920Z,19.60
2024-04-21T07:28:52.130Z,19.90
2024-04-21T07:31:24.313Z,20.20
2024-04-21T07:33:56.433Z,20.60
2024-04-21T07:36:28.501Z,20.80
2024-04-21T07:39:00.586Z,20.90
2024-04-21T07:41:32.651Z,21.20
2024-04-21T07:44:04.914Z,21.20
2024-04-21T07:46:37.099Z,21.30
2024-04-21T07:49:09.224Z,21.30
2024-04-21T07:51:41.259Z,21.30
2024-04-21T07:54:13.395Z,20.30
2024-04-21T07:56:48.586Z,19.50
2024-04-21T07:59:20.682Z,19.50
2024-04-21T08:01:52.875Z,19.20
2024-04-21T08:04:25.180Z,18.80
2024-04-21T08:06:57.908Z,18.50
2024-04-21T08:09:31.475Z,18.50
2024-04-21T08:12:04.212Z,19.10
2024-04-21T08:14:36.384Z,19.00
2024-04-21T08:17:08.464Z,18.20
2024-04-21T08:19:40.654Z,18.80
2024-04-21T08:22:12.810Z,18.90
2024-04-21T08:24:44.888Z,18.80
2024-04-21T08:27:16.907Z,18.00
2024-04-21T08:29:49.018Z,17.90
2024-04-21T08:32:21.083Z,18.20
2024-04-21T08:34:53.700Z,18.20
2024-04-21T08:37:25.806Z,18.10
2024-04-21T08:39:57.975Z,18.10
2024-04-21T08:42:36.176Z,17.20
2024-04-21T08:45:08.899Z,17.10
2024-04-21T08:47:41.511Z,17.50
2024-04-21T08:50:14.601Z,17.30
2024-04-21T08:52:47.286Z,16.90
2024-04-21T08:55:21.899Z,16.40
2024-04-21T08:57:53.941Z,16.00
2024-04-21T09:00:28.007Z,16.20
2024-04-21T09:03:00.826Z,16.30
2024-04-21T09:05:33.648Z,16.20
2024-04-21T09:08:06.273Z,15.90
2024-04-21T09:10:38.325Z,15.50
2024-04-21T09:13:10.812Z,15.50
2024-04-21T09:15:43.174Z,15.50
2024-04-21T09:18:15.320Z,15.20
2024-04-21T09:20:47.503Z,15.20
2024-04-21T09:23:19.588Z,15.30
2024-04-21T09:25:51.594Z,15.30
2024-04-21T09:28:24.768Z,15.10
2024-04-21T09:30:57.511Z,15.10
2024-04-21T09:33:30.969Z,15.30
2024-04-21T09:36:03.256Z,15.30
2024-04-21T09:38:36.501Z,15.50
2024-04-21T09:41:11.197Z,15.40
2024-04-21T09:43:44.576Z,14.90
2024-04-21T09:46:18.751Z,14.90
2024-04-21T09:48:52.251Z,15.10
2024-04-21T09:51:27.179Z,15.10
2024-04-21T09:54:01.276Z,15.10
2024-04-21T09:56:41.948Z,15.30
2024-04-21T09:59:16.717Z,15.30
2024-04-21T10:01:50.298Z,15.50
2024-04-21T10:04:24.153Z,15.80
2024-04-21T10:06:57.414Z,15.90
2024-04-21T10:09:29.985Z,16.10
2024-04-21T10:12:02.188Z,16.10
2024-04-21T10:14:34.310Z,16.00
2024-04-21T10:17:06.623Z,16.00
2024-04-21T10:19:40.143Z,16.20
2024-04-21T10:22:13.880Z,16.10
2024-04-21T10:24:46.348Z,16.50
2024-04-21T10:27:23.579Z,16.50
2024-04-21T10:29:55.834Z,16.80
2024-04-21T10:32:28.986Z,16.90
2024-04-21T10:35:01.066Z,17.20
2024-04-21T10:37:33.663Z,17.00
2024-04-21T10:40:07.368Z,16.60
2024-04-21T10:42:39.658Z,16.40
2024-04-21T10:45:12.151Z,16.40
2024-04-21T10:47:44.380Z,16.50
2024-04-21T10:50:16.917Z,16.90
2024-04-21T10:52:49.041Z,17.20
2024-04-21T10:55:21.523Z,17.60
2024-04-21T10:57:53.921Z,17.80
2024-04-21T11:00:26.200Z,17.80
2024-04-21T11:02:58.407Z,17.50
2024-04-21T11:05:38.687Z,17.50
2024-04-21T11:08:10.736Z,17.40
2024-04-21T11:10:43.534Z,17.10
2024-04-21T11:13:15.722Z,16.50
2024-04-21T11:15:47.845Z,16.10
2024-04-21T11:18:20.330Z,15.80
2024-04-21T11:20:52.951Z,15.80
2024-04-21T11:23:25.003Z,16.10
2024-04-21T11:25:57.071Z,16.60
2024-04-21T11:28:30.863Z,16.90
2024-04-21T11:31:07.274Z,16.80
2024-04-21T11:33:39.937Z,16.60
2024-04-21T11:36:16.523Z,16.80
2024-04-21T11:38:50.715Z,16.90
2024-04-21T11:41:23.392Z,16.70
2024-04-21T11:43:56.606Z,16.50
2024-04-21T11:46:29.844Z,16.80
2024-04-21T11:49:01.987Z,17.10
2024-04-21T11:51:34.541Z,17.10
2024-04-21T11:54:06.660Z,17.00
2024-04-21T11:56:38.808Z,17.00
2024-04-21T11:59:10.910Z,16.90
2024-04-21T12:01:49.750Z,17.00
2024-04-21T12:04:23.087Z,17.00
2024-04-21T12:06:55.256Z,16.70
2024-04-21T12:09:27.317Z,16.30
2024-04-21T12:11:59.554Z,15.90
2024-04-21T12:14:33.996Z,16.10
2024-04-21T12:17:06.332Z,16.00
2024-04-21T12:19:38.490Z,15.90
2024-04-21T12:22:10.851Z,15.90
2024-04-21T12:24:43.902Z,15.70
2024-04-21T12:27:16.834Z,15.80
2024-04-21T12:29:49.059Z,16.20
2024-04-21T12:32:21.158Z,16.20
2024-04-21T12:34:53.259Z,16.10
2024-04-21T12:37:25.438Z,15.80
2024-04-21T12:39:57.544Z,15.70
2024-04-21T12:42:29.656Z,15.90
2024-04-21T12:45:01.720Z,16.10
2024-04-21T12:47:33.943Z,16.10
2024-04-21T12:50:07.014Z,15.80
2024-04-21T12:52:39.177Z,15.70
2024-04-21T12:55:11.357Z,15.30
2024-04-21T12:57:43.516Z,15.10
2024-04-21T13:00:15.972Z,15.10
2024-04-21T13:02:48.090Z,15.30
2024-04-21T13:05:20.131Z,15.60
2024-04-21T13:07:52.597Z,15.50
2024-04-21T13:10:25.591Z,15.10
2024-04-21T13:12:57.758Z,15.00
2024-04-21T13:15:30.117Z,15.00
2024-04-21T13:18:02.412Z,15.00
2024-04-21T13:20:34.623Z,14.90
2024-04-21T13:23:07.765Z,15.00
2024-04-21T13:25:40.060Z,15.10
2024-04-21T13:28:12.281Z,14.90
2024-04-21T13:30:44.501Z,14.80
2024-04-21T13:33:16.817Z,14.80
2024-04-21T13:35:48.933Z,14.60
2024-04-21T13:38:21.073Z,14.50
2024-04-21T13:40:57.488Z,14.40
2024-04-21T13:43:29.974Z,14.40
2024-04-21T13:46:02.326Z,14.40
2024-04-21T13:48:34.410Z,14.50
2024-04-21T13:51:16.958Z,14.50
2024-04-21T13:53:56.888Z,14.70
2024-04-21T13:56:29.131Z,14.90
2024-04-21T13:59:01.325Z,15.00
2024-04-21T14:01:33.490Z,15.00
2024-04-21T14:04:06.603Z,14.80
2024-04-21T14:06:38.889Z,14.40
2024-04-21T14:09:10.901Z,14.40
2024-04-21T14:11:43.016Z,14.40
2024-04-21T14:14:15.091Z,14.50
2024-04-21T14:16:47.344Z,14.60
2024-04-21T14:19:19.634Z,14.80
2024-04-21T14:21:51.877Z,14.70
2024-04-21T14:24:24.006Z,14.50
2024-04-21T14:26:56.036Z,14.20
2024-04-21T14:29:29.424Z,14.10
2024-04-21T14:32:01.518Z,14.00
2024-04-21T14:34:36.968Z,13.90
2024-04-21T14:37:10.496Z,13.90
2024-04-21T14:39:42.628Z,13.90
2024-04-21T14:42:16.162Z,13.90
2024-04-21T14:44:52.369Z,13.80
2024-04-21T14:47:24.816Z,13.80
2024-04-21T14:49:57.137Z,13.80
2024-04-21T14:52:34.562Z,13.90
2024-04-21T14:55:07.946Z,13.90
2024-04-21T14:57:40.133Z,14.00
2024-04-21T15:00:13.357Z,14.00
2024-04-21T15:02:45.632Z,13.90
2024-04-21T15:05:17.903Z,13.80
2024-04-21T15:07:49.980Z,13.80
2024-04-21T15:10:22.211Z,13.90
2024-04-21T15:12:55.517Z,14.00
2024-04-21T15:15:30.355Z,14.10
2024-04-21T15:18:02.506Z,14.10
2024-04-21T15:20:34.742Z,14.20
2024-04-21T15:23:06.763Z,14.30
2024-04-21T15:25:38.904Z,14.30
2024-04-21T15:28:11.935Z,14.20
2024-04-21T15:30:44.003Z,14.20
2024-04-21T15:33:16.221Z,14.30
2024-04-21T15:35:48.532Z,14.20
2024-04-21T15:38:20.594Z,14.10
2024-04-21T15:40:52.772Z,14.00
2024-04-21T15:43:24.810Z,13.90
2024-04-21T15:45:56.981Z,14.00
2024-04-21T15:48:32.297Z,13.90
2024-04-21T15:51:06.632Z,14.00
2024-04-21T15:53:39.018Z,14.00
2024-04-21T15:56:11.125Z,14.10
2024-04-21T15:58:43.452Z,14.20
2024-04-21T16:01:15.551Z,14.20
2024-04-21T16:03:47.836Z,14.30
2024-04-21T16:06:19.912Z,14.50
2024-04-21T16:08:52.120Z,14.30
2024-04-21T16:11:24.282Z,14.00
2024-04-21T16:13:56.373Z,14.00
2024-04-21T16:16:28.865Z,14.10
2024-04-21T16:19:01.193Z,13.90
2024-04-21T16:21:33.787Z,14.00
2024-04-21T16:24:06.350Z,13.90
2024-04-21T16:26:38.473Z,13.80
2024-04-21T16:29:10.646Z,13.80
2024-04-21T16:31:43.368Z,13.80
2024-04-21T16:34:16.339Z,13.90
2024-04-21T16:36:49.160Z,13.90
2024-04-21T16:39:21.579Z,13.90
2024-04-21T16:41:54.028Z,13.90
2024-04-21T16:57:58.432Z,13.80
2024-04-21T17:00:30.838Z,13.70
2024-04-21T17:03:03.699Z,13.70
2024-04-21T17:05:36.195Z,13.70
2024-04-21T17:08:36.102Z,13.60
2024-04-21T17:11:08.721Z,13.60
2024-04-21T17:13:44.698Z,13.60
2024-04-21T17:16:18.100Z,13.50
2024-04-21T17:18:50.354Z,13.40
2024-04-21T17:21:22.373Z,13.30
2024-04-21T17:23:54.458Z,13.30
2024-04-21T17:26:26.501Z,13.30
2024-04-21T17:28:59.272Z,13.20
2024-04-21T17:31:31.392Z,13.00
2024-04-21T17:34:03.531Z,12.70
2024-04-21T17:36:36.134Z,12.40
2024-04-21T17:39:08.413Z,12.20
2024-04-21T17:41:40.853Z,12.10
2024-04-21T17:44:15.720Z,12.00
2024-04-21T17:46:51.922Z,12.00
2024-04-21T17:49:24.154Z,12.00
2024-04-21T17:51:56.464Z,12.10
2024-04-21T17:54:28.558Z,12.10
2024-04-21T17:57:00.940Z,12.10
2024-04-21T17:59:33.175Z,12.10
2024-04-21T18:02:05.484Z,12.10
2024-04-21T18:04:37.804Z,12.10
2024-04-21T18:07:10.031Z,12.10
2024-04-21T18:09:42.183Z,12.10
2024-04-21T18:12:14.468Z,12.10
2024-04-21T18:14:46.578Z,12.10
2024-04-21T18:17:25.876Z,12.10
2024-04-21T18:20:00.434Z,12.10
2024-04-21T18:22:32.969Z,12.20
2024-04-21T18:25:05.846Z,12.20
2024-04-21T18:27:39.951Z,12.20
2024-04-21T18:30:12.228Z,12.00
2024-04-21T18:32:45.918Z,12.00
2024-04-21T18:35:18.162Z,12.00
2024-04-21T18:37:53.855Z,11.90
2024-04-21T18:40:25.925Z,11.90
2024-04-21T18:43:00.022Z,12.00
2024-04-21T18:45:32.142Z,12.10
2024-04-21T18:48:04.586Z,12.20
2024-04-21T18:50:45.660Z,12.20
2024-04-21T18:53:18.116Z,12.30
2024-04-21T18:55:50.376Z,12.20
2024-04-21T18:58:22.604Z,12.10
2024-04-21T19:00:55.080Z,12.00
2024-04-21T19:03:27.633Z,11.90
2024-04-21T19:06:01.102Z,11.80
2024-04-21T19:08:33.240Z,11.80
2024-04-21T19:11:06.973Z,11.70
2024-04-21T19:13:41.091Z,11.60
2024-04-21T19:16:14.266Z,11.60
2024-04-21T19:18:46.796Z,11.40
2024-04-21T19:21:19.601Z,11.40
2024-04-21T19:23:52.051Z,11.20
2024-04-21T19:26:24.155Z,11.20
2024-04-21T19:28:56.442Z,11.10
2024-04-21T19:31:28.616Z,11.10
2024-04-21T19:34:01.767Z,11.10
2024-04-21T19:36:34.275Z,11.20
2024-04-21T19:39:06.921Z,11.30
2024-04-21T19:41:39.121Z,11.30
2024-04-21T19:44:13.064Z,11.20
2024-04-21T19:46:45.128Z,11.10
2024-04-21T19:49:17.677Z,11.10
2024-04-21T19:51:50.481Z,10.90
2024-04-21T19:54:29.684Z,10.80
2024-04-21T19:57:08.381Z,10.70
2024-04-21T19:59:43.155Z,10.80
2024-04-21T20:02:15.957Z,10.80
2024-04-21T20:04:48.410Z,10.90
2024-04-21T20:07:20.817Z,11.00
2024-04-21T20:09:55.502Z,11.00
2024-04-21T20:12:28.551Z,11.00
2024-04-21T20:15:19.042Z,10.90
2024-04-21T20:18:09.637Z,11.00
2024-04-21T20:20:42.161Z,11.00
2024-04-21T20:23:14.422Z,10.90
2024-04-21T20:25:46.693Z,10.80
2024-04-21T20:28:18.843Z,10.90
2024-04-21T20:30:51.034Z,11.00
2024-04-21T20:33:23.233Z,11.00
2024-04-21T20:35:55.263Z,11.00
2024-04-21T20:38:27.666Z,10.90
2024-04-21T20:41:00.023Z,10.90
2024-04-21T20:43:32.514Z,10.70
2024-04-21T20:46:04.804Z,10.70
2024-04-21T20:48:40.140Z,10.70
2024-04-21T20:51:12.472Z,10.60
2024-04-21T20:53:44.828Z,10.70
2024-04-21T20:56:17.456Z,10.70
2024-04-21T20:58:52.765Z,10.60
2024-04-21T21:01:25.779Z,10.50
2024-04-21T21:03:57.961Z,10.40
2024-04-21T21:06:30.362Z,10.40
2024-04-21T21:09:02.416Z,10.40
2024-04-21T21:11:34.777Z,10.30
2024-04-21T21:14:07.796Z,10.30
2024-04-21T21:16:39.921Z,10.30
2024-04-21T21:19:12.100Z,10.20
2024-04-21T21:21:44.361Z,10.20
2024-04-21T21:24:18.324Z,10.20
2024-04-21T21:26:50.871Z,10.20
2024-04-21T21:29:23.109Z,10.10
2024-04-21T21:31:56.392Z,10.00
2024-04-21T21:34:28.856Z,9.90
2024-04-21T21:37:01.055Z,9.90
2024-04-21T21:39:33.147Z,10.00
2024-04-21T21:42:06.612Z,10.10
2024-04-21T21:44:38.846Z,10.20
2024-04-21T21:47:11.006Z,10.30
2024-04-21T21:49:43.179Z,10.30
2024-04-21T21:52:15.371Z,10.40
2024-04-21T21:54:47.474Z,10.40
2024-04-21T21:57:20.097Z,10.20
2024-04-21T21:59:52.203Z,10.10
2024-04-21T22:02:24.561Z,10.10
2024-04-21T22:04:56.700Z,10.00
2024-04-21T22:07:28.773Z,10.00
2024-04-21T22:10:00.897Z,10.00
2024-04-21T22:12:33.036Z,10.00
2024-04-21T22:15:05.485Z,10.10
2024-04-21T22:17:37.706Z,10.20
2024-04-21T22:20:10.375Z,10.30
2024-04-21T22:22:42.561Z,10.30
2024-04-21T22:25:14.856Z,10.30
2024-04-21T22:27:47.023Z,10.30
2024-04-21T22:30:19.476Z,10.20
2024-04-21T22:32:51.838Z,10.10
2024-04-21T22:35:24.580Z,10.10
2024-04-21T22:37:56.651Z,10.10
2024-04-21T22:40:28.867Z,10.20
2024-04-21T22:43:01.043Z,10.30
2024-04-21T22:45:33.080Z,10.30
2024-04-21T22:48:05.540Z,10.40
2024-04-21T22:50:37.641Z,10.30
2024-04-21T22:53:09.670Z,10.30
2024-04-21T22:55:41.841Z,10.20
2024-04-21T22:58:14.054Z,10.20
2024-04-21T23:00:47.080Z,10.00
2024-04-21T23:03:34.316Z,10.00
2024-04-21T23:06:07.174Z,10.00
2024-04-21T23:08:39.287Z,10.00
2024-04-21T23:11:11.453Z,10.10
2024-04-21T23:13:43.612Z,10.00
2024-04-21T23:16:16.593Z,10.10
2024-04-21T23:18:48.814Z,10.10
2024-04-21T23:21:20.927Z,10.00
2024-04-21T23:23:53.090Z,10.00
2024-04-21T23:26:25.160Z,10.00
2024-04-21T23:28:57.268Z,10.10
2024-04-21T23:31:32.852Z,10.10
2024-04-21T23:34:05.006Z,10.20
2024-04-21T23:36:37.115Z,10.10
2024-04-21T23:39:09.919Z,10.00
2024-04-21T23:41:42.120Z,9.90
2024-04-21T23:44:14.250Z,10.00
2024-04-21T23:46:47.062Z,9.90
2024-04-21T23:49:21.023Z,9.90
2024-04-21T23:51:53.180Z,10.00
2024-04-21T23:54:25.295Z,10.10
2024-04-21T23:56:57.490Z,10.00
2024-04-21T23:59:29.702Z,10.00
